createdAt,value
2019-03-22T00:00:27.432Z,28.00
2019-03-22T00:03:00.725Z,25.83
2019-03-22T00:05:32.902Z,26.37
2019-03-22T00:08:04.307Z,25.53
2019-03-22T00:10:35.710Z,30.27
2019-03-22T00:13:07.073Z,30.37
2019-03-22T00:15:38.838Z,29.87
2019-03-22T00:18:10.182Z,28.43
2019-03-22T00:20:41.249Z,27.23
2019-03-22T00:23:12.367Z,28.03
2019-03-22T00:25:43.528Z,30.40
2019-03-22T00:28:14.557Z,31.83
2019-03-22T00:30:45.799Z,29.17
2019-03-22T00:33:17.643Z,34.80
2019-03-22T00:35:48.947Z,31.33
2019-03-22T00:38:20.132Z,30.47
2019-03-22T00:40:51.444Z,29.70
2019-03-22T00:43:22.877Z,28.90
2019-03-22T00:45:53.902Z,31.20
2019-03-22T00:48:25.047Z,31.50
2019-03-22T00:50:56.363Z,31.77
2019-03-22T00:53:27.980Z,29.40
2019-03-22T00:55:59.372Z,29.33
2019-03-22T00:58:30.760Z,30.00
2019-03-22T01:01:02.833Z,28.90
2019-03-22T01:03:34.033Z,33.63
2019-03-22T01:06:05.106Z,31.13
2019-03-22T01:08:36.601Z,38.20
2019-03-22T01:11:10.501Z,33.60
2019-03-22T01:13:42.044Z,34.23
2019-03-22T01:16:13.164Z,34.10
2019-03-22T01:18:44.490Z,31.60
2019-03-22T01:21:15.612Z,31.53
2019-03-22T01:23:46.992Z,29.30
2019-03-22T01:26:18.006Z,31.50
2019-03-22T01:28:49.419Z,34.47
2019-03-22T01:31:20.575Z,29.10
2019-03-22T01:33:51.916Z,31.47
2019-03-22T01:36:23.293Z,33.90
2019-03-22T01:38:54.567Z,33.17
2019-03-22T01:41:26.007Z,35.47
2019-03-22T01:43:57.476Z,35.13
2019-03-22T01:46:28.623Z,35.53
2019-03-22T01:48:59.682Z,33.63
2019-03-22T01:51:30.809Z,33.10
2019-03-22T01:54:01.951Z,35.10
2019-03-22T01:56:33.085Z,34.70
2019-03-22T01:59:04.501Z,35.07
2019-03-22T02:01:35.661Z,33.10
2019-03-22T02:04:06.727Z,31.37
2019-03-22T02:06:38.181Z,37.10
2019-03-22T02:09:10.411Z,37.43
2019-03-22T02:11:41.879Z,36.43
2019-03-22T02:14:13.075Z,35.03
2019-03-22T02:16:44.121Z,35.50
2019-03-22T02:19:15.758Z,35.80
2019-03-22T02:21:46.949Z,36.67
2019-03-22T02:24:18.007Z,36.10
2019-03-22T02:26:49.285Z,33.37
2019-03-22T02:29:20.523Z,36.80
2019-03-22T02:31:52.296Z,35.93
2019-03-22T02:34:23.632Z,35.53
2019-03-22T02:36:54.897Z,35.90
2019-03-22T02:39:26.523Z,38.67
2019-03-22T02:41:57.906Z,38.93
2019-03-22T02:44:29.083Z,39.63
2019-03-22T02:47:00.241Z,37.63
2019-03-22T02:49:31.526Z,38.47
2019-03-22T02:52:02.887Z,39.57
2019-03-22T02:54:34.060Z,34.83
2019-03-22T02:57:06.433Z,40.43
2019-03-22T02:59:37.606Z,38.80
2019-03-22T03:02:08.983Z,39.63
2019-03-22T03:04:39.983Z,40.43
2019-03-22T03:07:11.234Z,38.30
2019-03-22T03:09:42.261Z,39.27
2019-03-22T03:12:13.518Z,40.10
2019-03-22T03:14:44.813Z,36.97
2019-03-22T03:17:16.172Z,44.27
2019-03-22T03:19:47.425Z,42.43
2019-03-22T03:22:18.448Z,39.70
2019-03-22T03:24:49.803Z,39.23
2019-03-22T03:27:21.063Z,39.43
2019-03-22T03:29:52.257Z,40.40
2019-03-22T03:32:23.516Z,40.30
2019-03-22T03:34:54.965Z,37.43
2019-03-22T03:37:26.067Z,39.93
2019-03-22T03:39:57.324Z,39.53
2019-03-22T03:42:28.706Z,38.80
2019-03-22T03:45:00.865Z,45.33
2019-03-22T03:47:33.209Z,42.17
2019-03-22T03:50:04.926Z,43.37
2019-03-22T03:52:39.473Z,44.27
2019-03-22T03:55:09.487Z,46.40
2019-03-22T03:57:41.225Z,46.93
2019-03-22T04:00:12.922Z,48.50
2019-03-22T04:02:43.995Z,44.57
2019-03-22T04:05:15.324Z,46.13
2019-03-22T04:07:46.960Z,46.47
2019-03-22T04:10:18.317Z,45.63
2019-03-22T04:12:49.563Z,50.30
2019-03-22T04:15:20.950Z,44.07
2019-03-22T04:17:52.251Z,47.03
2019-03-22T04:20:23.737Z,58.33
2019-03-22T04:22:55.149Z,54.70
2019-03-22T04:25:26.522Z,49.30
2019-03-22T04:27:57.792Z,48.43
2019-03-22T04:30:29.083Z,43.80
2019-03-22T04:33:00.490Z,46.83
2019-03-22T04:35:31.843Z,45.10
2019-03-22T04:38:03.065Z,45.00
2019-03-22T04:40:34.064Z,48.80
2019-03-22T04:43:05.440Z,43.87
2019-03-22T04:45:37.528Z,47.00
2019-03-22T04:48:27.736Z,50.77
2019-03-22T04:51:00.922Z,49.53
2019-03-22T04:53:38.548Z,50.27
2019-03-22T04:56:12.258Z,53.70
2019-03-22T04:58:46.889Z,53.03
2019-03-22T05:01:20.532Z,55.30
2019-03-22T05:03:52.887Z,55.63
2019-03-22T05:06:26.153Z,56.27
2019-03-22T05:08:59.878Z,55.73
2019-03-22T05:11:31.373Z,55.93
2019-03-22T05:14:03.809Z,59.97
2019-03-22T05:16:38.161Z,66.57
2019-03-22T05:19:12.047Z,71.53
2019-03-22T05:21:45.286Z,73.17
2019-03-22T05:24:18.383Z,69.83
2019-03-22T05:26:50.314Z,71.80
2019-03-22T05:29:30.622Z,70.77
2019-03-22T05:32:14.238Z,77.40
2019-03-22T05:34:45.297Z,68.30
2019-03-22T05:37:16.610Z,74.10
2019-03-22T05:39:47.729Z,69.70
2019-03-22T05:42:18.936Z,74.13
2019-03-22T05:44:50.370Z,70.20
2019-03-22T05:47:21.769Z,71.83
2019-03-22T05:49:52.894Z,69.90
2019-03-22T05:52:24.016Z,66.67
2019-03-22T05:54:55.198Z,65.17
2019-03-22T05:57:26.348Z,69.47
2019-03-22T05:59:57.626Z,63.77
2019-03-22T06:02:28.850Z,68.20
2019-03-22T06:05:00.363Z,69.80
2019-03-22T06:07:31.661Z,68.63
2019-03-22T06:10:03.116Z,73.17
2019-03-22T06:12:34.364Z,68.07
2019-03-22T06:15:06.718Z,59.33
2019-03-22T06:17:38.285Z,65.23
2019-03-22T06:20:09.880Z,68.53
2019-03-22T06:22:41.287Z,66.83
2019-03-22T06:25:12.607Z,73.27
2019-03-22T06:27:43.820Z,86.13
2019-03-22T06:30:15.019Z,96.37
2019-03-22T06:32:46.247Z,67.77
2019-03-22T06:35:17.817Z,62.90
2019-03-22T06:37:48.987Z,66.97
2019-03-22T06:40:20.357Z,64.60
2019-03-22T06:42:51.543Z,59.43
2019-03-22T06:45:22.715Z,61.77
2019-03-22T06:47:53.787Z,57.93
2019-03-22T06:50:25.041Z,56.37
2019-03-22T06:52:56.165Z,67.87
2019-03-22T06:55:27.411Z,59.97
2019-03-22T06:57:58.683Z,58.03
2019-03-22T07:00:29.975Z,61.40
2019-03-22T07:03:01.076Z,57.20
2019-03-22T07:05:32.615Z,54.50
2019-03-22T07:08:03.863Z,47.57
2019-03-22T07:10:35.864Z,50.20
2019-03-22T07:13:08.405Z,60.20
2019-03-22T07:15:39.464Z,50.47
2019-03-22T07:18:10.543Z,53.27
2019-03-22T07:20:41.692Z,67.03
2019-03-22T07:23:12.836Z,52.73
2019-03-22T07:25:44.844Z,45.67
2019-03-22T07:28:16.052Z,59.47
2019-03-22T07:30:47.080Z,55.23
2019-03-22T07:33:18.024Z,49.00
2019-03-22T07:35:49.036Z,47.50
2019-03-22T07:38:20.092Z,44.03
2019-03-22T07:40:51.172Z,47.07
2019-03-22T07:43:22.196Z,64.27
2019-03-22T07:45:55.504Z,69.43
2019-03-22T07:48:26.887Z,59.20
2019-03-22T07:50:58.165Z,52.97
2019-03-22T07:53:29.380Z,48.03
2019-03-22T07:56:00.541Z,54.40
2019-03-22T07:58:31.771Z,41.13
2019-03-22T08:01:06.111Z,54.17
2019-03-22T08:03:37.304Z,55.90
2019-03-22T08:06:08.587Z,81.93
2019-03-22T08:08:55.812Z,47.43
2019-03-22T08:11:26.936Z,36.37
2019-03-22T08:13:57.905Z,36.80
2019-03-22T08:16:29.078Z,39.93
2019-03-22T08:19:00.282Z,30.87
2019-03-22T08:21:31.242Z,27.77
2019-03-22T08:24:02.644Z,32.73
2019-03-22T08:26:33.911Z,34.90
2019-03-22T08:29:04.859Z,34.60
2019-03-22T08:31:45.213Z,31.90
2019-03-22T08:34:16.389Z,33.93
2019-03-22T08:36:47.431Z,49.13
2019-03-22T08:39:18.543Z,27.40
2019-03-22T08:41:49.545Z,30.77
2019-03-22T08:44:20.543Z,37.27
2019-03-22T08:46:51.604Z,39.47
2019-03-22T08:49:22.839Z,37.50
2019-03-22T08:51:53.975Z,30.60
2019-03-22T08:54:25.056Z,23.87
2019-03-22T08:56:56.053Z,23.00
2019-03-22T08:59:27.134Z,34.10
2019-03-22T09:01:58.563Z,26.17
2019-03-22T09:04:29.592Z,24.30
2019-03-22T09:07:00.535Z,22.07
2019-03-22T09:09:40.978Z,27.83
2019-03-22T09:12:04.371Z,27.77
2019-03-22T09:14:35.420Z,20.37
2019-03-22T09:17:06.499Z,15.37
2019-03-22T09:19:37.795Z,17.03
2019-03-22T09:22:08.741Z,20.07
2019-03-22T09:24:39.815Z,13.80
2019-03-22T09:27:10.863Z,18.30
2019-03-22T09:29:42.363Z,14.17
2019-03-22T09:32:13.470Z,13.27
2019-03-22T09:34:44.533Z,14.13
2019-03-22T09:37:15.653Z,9.20
2019-03-22T09:39:46.626Z,17.37
2019-03-22T09:42:17.653Z,13.00
2019-03-22T09:44:48.801Z,20.57
2019-03-22T09:47:19.824Z,31.53
2019-03-22T09:49:51.344Z,15.20
2019-03-22T09:52:22.464Z,25.03
2019-03-22T09:54:53.443Z,19.37
2019-03-22T09:57:24.407Z,12.53
2019-03-22T09:59:55.771Z,19.07
2019-03-22T10:02:26.734Z,10.57
2019-03-22T10:04:57.683Z,5.07
2019-03-22T10:07:28.643Z,5.63
2019-03-22T10:09:59.599Z,5.77
2019-03-22T10:12:30.592Z,9.50
2019-03-22T10:15:01.526Z,12.87
2019-03-22T10:17:34.577Z,25.47
2019-03-22T10:20:07.007Z,15.73
2019-03-22T10:22:38.255Z,9.53
2019-03-22T10:25:09.472Z,15.97
2019-03-22T10:27:40.579Z,9.17
2019-03-22T10:30:12.148Z,12.07
2019-03-22T10:32:43.360Z,6.17
2019-03-22T10:35:25.503Z,26.60
2019-03-22T10:37:47.437Z,10.67
2019-03-22T10:40:18.441Z,17.13
2019-03-22T10:42:49.906Z,11.97
2019-03-22T10:45:21.150Z,12.93
2019-03-22T10:47:52.437Z,10.00
2019-03-22T10:50:23.601Z,8.30
2019-03-22T10:52:54.637Z,3.80
2019-03-22T10:55:30.121Z,9.43
2019-03-22T10:57:58.236Z,8.10
2019-03-22T11:00:29.747Z,8.13
2019-03-22T11:03:00.747Z,12.53
2019-03-22T11:05:31.725Z,6.80
2019-03-22T11:08:02.651Z,6.07
2019-03-22T11:10:33.619Z,18.03
2019-03-22T11:13:05.091Z,6.13
2019-03-22T11:15:37.357Z,7.57
2019-03-22T11:18:08.734Z,10.77
2019-03-22T11:20:40.336Z,8.13
2019-03-22T11:23:11.379Z,6.83
2019-03-22T11:25:42.623Z,8.73
2019-03-22T11:28:13.925Z,7.03
2019-03-22T11:30:45.335Z,12.50
2019-03-22T11:33:16.654Z,8.50
2019-03-22T11:35:47.795Z,10.77
2019-03-22T11:38:18.994Z,11.37
2019-03-22T11:40:50.462Z,10.40
2019-03-22T11:43:21.632Z,6.33
2019-03-22T11:45:52.652Z,6.83
2019-03-22T11:48:23.774Z,8.67
2019-03-22T11:50:54.716Z,5.70
2019-03-22T11:53:25.893Z,10.23
2019-03-22T11:55:57.318Z,17.37
2019-03-22T11:58:28.510Z,6.77
2019-03-22T12:00:59.946Z,7.47
2019-03-22T12:03:30.934Z,18.43
2019-03-22T12:06:02.064Z,4.77
2019-03-22T12:08:33.054Z,9.87
2019-03-22T12:11:04.535Z,13.07
2019-03-22T12:13:35.464Z,8.43
2019-03-22T12:16:06.612Z,12.90
2019-03-22T12:18:37.635Z,11.33
2019-03-22T12:21:08.594Z,11.80
2019-03-22T12:23:39.637Z,7.03
2019-03-22T12:26:10.878Z,6.73
2019-03-22T12:28:43.113Z,5.07
2019-03-22T12:31:14.069Z,14.00
2019-03-22T12:33:45.065Z,9.37
2019-03-22T12:36:16.009Z,11.73
2019-03-22T12:38:47.017Z,8.27
2019-03-22T12:41:18.108Z,13.60
2019-03-22T12:43:49.121Z,8.77
2019-03-22T12:46:20.225Z,11.67
2019-03-22T12:48:51.233Z,19.60
2019-03-22T12:51:22.315Z,14.57
2019-03-22T12:53:53.274Z,17.77
2019-03-22T12:56:25.483Z,11.30
2019-03-22T12:58:56.484Z,19.33
2019-03-22T13:01:27.798Z,17.90
2019-03-22T13:04:00.160Z,16.23
2019-03-22T13:06:32.382Z,7.97
2019-03-22T13:09:04.046Z,11.88
2019-03-22T13:11:35.546Z,22.42
2019-03-22T13:14:06.483Z,20.35
2019-03-22T13:16:37.628Z,6.67
2019-03-22T13:19:08.674Z,9.07
2019-03-22T13:21:40.737Z,4.73
2019-03-22T13:24:11.692Z,30.20
2019-03-22T13:26:42.698Z,29.57
2019-03-22T13:29:13.738Z,20.50
2019-03-22T13:31:44.704Z,10.97
2019-03-22T13:34:15.780Z,8.65
2019-03-22T13:36:46.762Z,38.10
2019-03-22T13:39:17.841Z,17.45
2019-03-22T13:41:48.936Z,12.77
2019-03-22T13:44:19.959Z,15.95
2019-03-22T13:46:51.097Z,8.35
2019-03-22T13:49:23.057Z,9.97
2019-03-22T13:51:54.141Z,7.90
2019-03-22T13:54:25.234Z,7.67
2019-03-22T13:56:56.223Z,7.00
2019-03-22T13:59:27.225Z,3.67
2019-03-22T14:01:58.239Z,7.90
2019-03-22T14:04:29.284Z,11.93
2019-03-22T14:07:00.442Z,8.68
2019-03-22T14:09:31.648Z,5.65
2019-03-22T14:12:02.878Z,22.77
2019-03-22T14:14:34.069Z,10.82
2019-03-22T14:17:05.170Z,8.38
2019-03-22T14:19:38.671Z,8.40
2019-03-22T14:22:09.654Z,37.97
2019-03-22T14:24:40.595Z,13.40
2019-03-22T14:27:11.830Z,20.33
2019-03-22T14:29:42.775Z,19.30
2019-03-22T14:32:13.850Z,27.17
2019-03-22T14:34:44.786Z,41.53
2019-03-22T14:37:16.142Z,31.00
2019-03-22T14:39:47.060Z,17.40
2019-03-22T14:42:18.075Z,24.97
2019-03-22T14:44:49.169Z,24.83
2019-03-22T14:47:20.204Z,15.70
2019-03-22T14:49:51.350Z,22.27
2019-03-22T14:52:22.458Z,18.03
2019-03-22T14:54:54.508Z,17.47
2019-03-22T14:57:25.466Z,17.60
2019-03-22T14:59:59.261Z,19.00
2019-03-22T15:02:29.256Z,20.10
2019-03-22T15:05:00.407Z,20.57
2019-03-22T15:07:32.587Z,11.83
2019-03-22T15:10:03.988Z,11.47
2019-03-22T15:12:35.177Z,10.70
2019-03-22T15:15:24.660Z,30.43
2019-03-22T15:18:07.328Z,19.60
2019-03-22T15:21:09.558Z,6.57
2019-03-22T15:24:03.713Z,15.23
2019-03-22T15:26:52.534Z,14.67
2019-03-22T15:29:42.578Z,11.20
2019-03-22T15:32:31.055Z,20.80
2019-03-22T15:35:19.855Z,5.73
2019-03-22T15:38:19.228Z,5.33
2019-03-22T15:40:50.192Z,8.23
2019-03-22T15:43:22.387Z,31.40
2019-03-22T15:45:53.399Z,20.60
2019-03-22T15:48:24.400Z,11.73
2019-03-22T15:50:55.575Z,21.13
2019-03-22T15:53:26.552Z,16.43
2019-03-22T15:55:57.531Z,23.80
2019-03-22T15:58:28.753Z,13.23
2019-03-22T16:00:59.997Z,42.50
2019-03-22T16:03:32.513Z,37.50
2019-03-22T16:06:03.604Z,14.97
2019-03-22T16:08:34.602Z,15.70
2019-03-22T16:11:05.717Z,49.47
2019-03-22T16:13:36.767Z,12.37
2019-03-22T16:16:07.779Z,13.53
2019-03-22T16:18:38.894Z,6.47
2019-03-22T16:21:09.894Z,16.67
2019-03-22T16:23:40.920Z,8.63
2019-03-22T16:26:11.951Z,6.57
2019-03-22T16:28:43.128Z,8.63
2019-03-22T16:31:14.334Z,14.00
2019-03-22T16:33:54.018Z,12.13
2019-03-22T16:36:18.188Z,8.50
2019-03-22T16:38:49.576Z,14.70
2019-03-22T16:41:20.726Z,26.63
2019-03-22T16:43:52.126Z,19.50
2019-03-22T16:46:23.461Z,34.77
2019-03-22T16:48:55.691Z,24.60
2019-03-22T16:51:26.796Z,22.90
2019-03-22T16:53:57.988Z,22.07
2019-03-22T16:56:28.954Z,36.80
2019-03-22T16:59:00.171Z,32.90
2019-03-22T17:01:31.207Z,63.47
2019-03-22T17:04:04.659Z,60.08
2019-03-22T17:06:35.057Z,45.97
2019-03-22T17:09:07.503Z,45.00
2019-03-22T17:11:38.785Z,36.07
2019-03-22T17:14:09.787Z,33.23
2019-03-22T17:16:40.785Z,29.00
2019-03-22T17:19:11.759Z,32.63
2019-03-22T17:21:42.745Z,30.10
2019-03-22T17:24:13.769Z,42.83
2019-03-22T17:26:44.751Z,36.50
2019-03-22T17:29:15.813Z,31.27
2019-03-22T17:31:46.939Z,19.33
2019-03-22T17:34:17.933Z,39.13
2019-03-22T17:36:48.894Z,34.00
2019-03-22T17:39:19.943Z,36.20
2019-03-22T17:41:50.927Z,37.17
2019-03-22T17:44:22.270Z,25.30
2019-03-22T17:46:53.276Z,36.67
2019-03-22T17:49:24.362Z,44.37
2019-03-22T17:51:55.463Z,45.17
2019-03-22T17:54:26.521Z,29.00
2019-03-22T17:56:57.891Z,35.13
2019-03-22T17:59:29.275Z,35.53
2019-03-22T18:02:00.357Z,33.03
2019-03-22T18:04:31.433Z,35.40
2019-03-22T18:07:03.959Z,26.50
2019-03-22T18:09:35.224Z,33.73
2019-03-22T18:12:06.501Z,33.83
2019-03-22T18:14:37.484Z,32.57
2019-03-22T18:17:08.644Z,26.67
2019-03-22T18:19:39.780Z,31.43
2019-03-22T18:22:10.944Z,30.53
2019-03-22T18:24:42.038Z,35.67
2019-03-22T18:27:13.304Z,29.10
2019-03-22T18:29:44.879Z,29.77
2019-03-22T18:32:16.028Z,33.70
2019-03-22T18:34:47.516Z,26.53
2019-03-22T18:37:18.500Z,27.77
2019-03-22T18:39:49.823Z,27.37
2019-03-22T18:42:21.092Z,29.37
2019-03-22T18:44:52.450Z,23.00
2019-03-22T18:47:23.749Z,28.60
2019-03-22T18:49:55.640Z,29.03
2019-03-22T18:52:27.028Z,35.83
2019-03-22T18:54:58.458Z,35.53
2019-03-22T18:57:29.874Z,48.30
2019-03-22T19:00:02.269Z,49.23
2019-03-22T19:02:37.106Z,48.20
2019-03-22T19:05:08.908Z,46.43
2019-03-22T19:07:40.223Z,46.90
2019-03-22T19:10:12.341Z,43.23
2019-03-22T19:12:43.761Z,44.90
2019-03-22T19:15:15.264Z,53.23
2019-03-22T19:17:51.551Z,48.80
2019-03-22T19:20:25.969Z,58.87
2019-03-22T19:22:58.156Z,60.80
2019-03-22T19:25:29.287Z,58.93
2019-03-22T19:28:00.600Z,52.77
2019-03-22T19:30:31.842Z,64.03
2019-03-22T19:33:03.023Z,64.87
2019-03-22T19:35:34.253Z,64.30
2019-03-22T19:38:05.432Z,65.13
2019-03-22T19:40:36.522Z,72.47
2019-03-22T19:43:08.602Z,76.13
2019-03-22T19:45:39.572Z,82.93
2019-03-22T19:48:10.587Z,74.10
2019-03-22T19:51:02.442Z,74.30
2019-03-22T19:53:33.602Z,72.50
2019-03-22T19:56:05.028Z,67.70
2019-03-22T19:58:42.491Z,67.40
2019-03-22T20:01:14.048Z,62.40
2019-03-22T20:03:45.134Z,68.70
2019-03-22T20:06:16.471Z,95.43
2019-03-22T20:08:47.689Z,89.20
2019-03-22T20:11:18.886Z,90.73
2019-03-22T20:13:49.988Z,95.90
2019-03-22T20:16:21.182Z,80.67
2019-03-22T20:18:52.528Z,87.17
2019-03-22T20:21:23.975Z,85.67
2019-03-22T20:23:55.104Z,92.43
2019-03-22T20:26:26.217Z,69.83
2019-03-22T20:28:57.346Z,80.20
2019-03-22T20:31:28.534Z,72.77
2019-03-22T20:33:59.677Z,73.87
2019-03-22T20:36:31.367Z,82.17
2019-03-22T20:39:02.516Z,83.00
2019-03-22T20:41:35.433Z,98.63
2019-03-22T20:44:08.017Z,80.73
2019-03-22T20:46:39.021Z,83.43
2019-03-22T20:49:10.049Z,81.00
2019-03-22T20:51:41.297Z,81.53
2019-03-22T20:54:12.465Z,100.50
2019-03-22T20:56:43.513Z,125.10
2019-03-22T20:59:14.583Z,133.77
2019-03-22T21:01:45.843Z,133.77
2019-03-22T21:04:18.015Z,131.17
2019-03-22T21:06:49.819Z,125.60
2019-03-22T21:09:21.952Z,132.73
2019-03-22T21:11:53.590Z,131.50
2019-03-22T21:14:25.058Z,119.63
2019-03-22T21:16:56.246Z,110.37
2019-03-22T21:19:27.275Z,108.43
2019-03-22T21:21:58.580Z,95.07
2019-03-22T21:24:31.894Z,95.77
2019-03-22T21:27:03.012Z,93.13
2019-03-22T21:29:43.709Z,77.83
2019-03-22T21:32:09.499Z,74.33
2019-03-22T21:34:40.732Z,79.57
2019-03-22T21:37:11.998Z,73.97
2019-03-22T21:39:43.179Z,64.03
2019-03-22T21:42:14.367Z,68.73
2019-03-22T21:44:45.613Z,74.27
2019-03-22T21:47:16.858Z,72.50
2019-03-22T21:49:48.272Z,71.27
2019-03-22T21:52:19.513Z,68.10
2019-03-22T21:54:50.755Z,76.03
2019-03-22T21:57:21.805Z,75.90
2019-03-22T21:59:53.239Z,66.17
2019-03-22T22:02:24.313Z,66.60
2019-03-22T22:04:55.425Z,77.70
2019-03-22T22:07:26.402Z,63.37
2019-03-22T22:09:57.667Z,61.30
2019-03-22T22:12:29.927Z,65.07
2019-03-22T22:15:01.225Z,56.77
2019-03-22T22:17:32.677Z,61.03
2019-03-22T22:20:04.004Z,63.07
2019-03-22T22:22:35.239Z,59.27
2019-03-22T22:25:06.874Z,66.53
2019-03-22T22:27:38.039Z,61.50
2019-03-22T22:30:09.504Z,61.03
2019-03-22T22:32:41.556Z,53.33
2019-03-22T22:35:12.773Z,70.87
2019-03-22T22:37:43.985Z,58.00
2019-03-22T22:40:15.414Z,64.57
2019-03-22T22:42:46.576Z,62.87
2019-03-22T22:45:17.652Z,57.87
2019-03-22T22:47:48.638Z,62.53
2019-03-22T22:50:19.734Z,57.93
2019-03-22T22:52:50.768Z,54.00
2019-03-22T22:55:21.936Z,58.97
2019-03-22T22:57:53.257Z,62.73
2019-03-22T23:00:25.814Z,58.10
2019-03-22T23:02:58.493Z,57.57
2019-03-22T23:05:29.910Z,57.87
2019-03-22T23:08:01.143Z,57.57
2019-03-22T23:10:32.333Z,57.13
2019-03-22T23:13:03.786Z,63.37
2019-03-22T23:15:35.014Z,55.47
2019-03-22T23:18:06.489Z,60.40
2019-03-22T23:20:37.711Z,61.97
2019-03-22T23:23:08.801Z,59.70
2019-03-22T23:25:39.893Z,63.90
2019-03-22T23:28:11.171Z,62.63
2019-03-22T23:30:42.407Z,64.90
2019-03-22T23:33:13.612Z,62.10
2019-03-22T23:35:44.775Z,57.17
2019-03-22T23:38:15.866Z,61.83
2019-03-22T23:40:46.981Z,60.47
2019-03-22T23:43:18.121Z,61.50
2019-03-22T23:45:49.168Z,68.10
2019-03-22T23:48:20.192Z,67.43
2019-03-22T23:50:51.379Z,62.57
2019-03-22T23:53:22.403Z,68.47
2019-03-22T23:55:53.808Z,60.33
2019-03-22T23:58:25.171Z,58.90
